Time;durP1;ratioP1;P1;durP2;ratioP2;P2;SDS_P1;SDS_P2;PMS_P1;PMS_P2;Temp;Humidity;BMP_temperature;BMP_pressure;BME280_temperature;BME280_humidity;BME280_pressure;Samples;Min_cycle;Max_cycle;Signal;HPM_P1;HPM_P2
2023/04/15 00:02:18;;;;;;;15.00;7.65;;;;;;;8.75;70.98;101113.94;7395700;19;20050;-61
2023/04/15 00:04:45;;;;;;;11.80;7.05;;;;;;;8.74;71.42;101119.34;7395785;19;19998;-62
2023/04/15 00:07:11;;;;;;;12.07;7.05;;;;;;;8.86;70.92;101123.88;7395981;19;20490;-61
2023/04/15 00:09:36;;;;;;;11.02;6.90;;;;;;;9.05;70.24;101114.81;7393911;19;19995;-62
2023/04/15 00:12:02;;;;;;;10.55;7.03;;;;;;;9.10;69.84;101116.22;7394791;19;20006;-62
2023/04/15 00:14:28;;;;;;;11.55;7.63;;;;;;;9.07;69.80;101120.84;7395888;19;20466;-61
2023/04/15 00:16:56;;;;;;;11.52;7.35;;;;;;;9.07;69.88;101116.41;7396127;19;20006;-61
2023/04/15 00:19:23;;;;;;;12.18;7.50;;;;;;;8.73;71.04;101118.47;7394863;19;20467;-61
2023/04/15 00:21:48;;;;;;;11.88;7.45;;;;;;;8.75;71.38;101115.75;7396560;19;20003;-61
2023/04/15 00:24:14;;;;;;;12.93;7.32;;;;;;;8.97;70.67;101116.13;7395610;19;20002;-61
2023/04/15 00:26:40;;;;;;;11.82;7.10;;;;;;;9.01;70.47;101109.72;7395240;19;19998;-61
2023/04/15 00:29:05;;;;;;;10.75;7.05;;;;;;;9.08;70.10;101114.59;7393065;19;20463;-60
2023/04/15 00:31:31;;;;;;;11.77;7.35;;;;;;;9.10;69.76;101115.38;7392986;19;20006;-60
2023/04/15 00:33:57;;;;;;;12.52;7.28;;;;;;;9.16;69.55;101109.72;7392843;19;20011;-60
2023/04/15 00:36:23;;;;;;;12.13;7.00;;;;;;;9.08;69.84;101111.97;7394744;19;20039;-60
2023/04/15 00:38:48;;;;;;;11.25;7.32;;;;;;;8.91;70.60;101108.56;7395023;19;19998;-61
2023/04/15 00:41:14;;;;;;;10.73;6.82;;;;;;;8.95;70.81;101106.59;7395527;19;19998;-60
2023/04/15 00:43:40;;;;;;;10.27;6.45;;;;;;;9.01;70.53;101112.38;7393355;19;20055;-60
2023/04/15 00:46:06;;;;;;;11.40;6.97;;;;;;;9.02;70.47;101113.22;7394949;19;20003;-60
2023/04/15 00:48:32;;;;;;;10.25;6.47;;;;;;;9.04;70.23;101106.03;7395190;19;20014;-60
2023/04/15 00:50:58;;;;;;;10.85;6.50;;;;;;;9.12;69.64;101102.91;7392383;19;19991;-61
2023/04/15 00:53:23;;;;;;;11.20;6.68;;;;;;;9.03;70.30;101102.53;7392682;19;20102;-60
2023/04/15 00:55:50;;;;;;;12.02;6.63;;;;;;;9.11;70.11;101106.50;7393599;19;20003;-61
2023/04/15 00:58:22;;;;;;;11.27;6.22;;;;;;;9.15;69.68;101097.44;7394989;19;20074;-61
2023/04/15 01:00:48;;;;;;;11.35;6.80;;;;;;;9.14;69.98;101095.75;7394645;19;20022;-62
2023/04/15 01:03:14;;;;;;;12.77;7.18;;;;;;;9.08;69.86;101088.19;7393381;19;20005;-62
2023/04/15 01:05:40;;;;;;;13.35;7.10;;;;;;;9.08;70.15;101088.19;7394066;19;20013;-62
2023/04/15 01:08:06;;;;;;;11.88;7.20;;;;;;;9.10;70.27;101089.81;7394186;19;20002;-62
2023/04/15 01:10:32;;;;;;;12.48;7.50;;;;;;;9.10;70.10;101081.88;7393265;19;20006;-61
2023/04/15 01:12:58;;;;;;;12.05;7.40;;;;;;;8.99;70.45;101079.06;7392517;19;20010;-62
2023/04/15 01:15:24;;;;;;;11.23;7.05;;;;;;;9.12;70.22;101081.78;7393161;19;20002;-63
2023/04/15 01:17:50;;;;;;;12.82;7.45;;;;;;;9.15;70.13;101082.44;7391828;19;20465;-62
2023/04/15 01:20:16;;;;;;;12.25;8.20;;;;;;;9.13;70.28;101080.84;7391322;19;19995;-61
2023/04/15 01:22:42;;;;;;;12.40;7.88;;;;;;;9.04;70.75;101082.25;7392380;19;20001;-62
2023/04/15 01:25:11;;;;;;;11.55;7.43;;;;;;;9.05;71.04;101081.31;7393188;19;20498;-62
2023/04/15 01:27:41;;;;;;;12.35;7.82;;;;;;;9.11;70.82;101075.66;7391846;19;20013;-62
2023/04/15 01:30:08;;;;;;;13.02;8.05;;;;;;;9.06;71.18;101079.53;7391406;19;20355;-62
2023/04/15 01:32:33;;;;;;;12.25;8.23;;;;;;;9.10;70.78;101073.97;7392015;19;20003;-60
2023/04/15 01:34:59;;;;;;;13.13;8.30;;;;;;;8.92;71.74;101081.22;7393300;19;20438;-61
2023/04/15 01:37:25;;;;;;;13.35;7.97;;;;;;;8.88;71.94;101071.78;7393386;19;20497;-60
2023/04/15 01:39:51;;;;;;;12.85;8.35;;;;;;;9.05;71.50;101075.19;7391721;19;20002;-60
2023/04/15 01:42:16;;;;;;;13.38;8.15;;;;;;;9.02;71.35;101070.94;7392386;19;20002;-61
2023/04/15 01:44:42;;;;;;;13.50;7.85;;;;;;;9.04;71.57;101079.59;7392914;19;20087;-61
2023/04/15 01:47:11;;;;;;;14.32;8.43;;;;;;;9.10;71.13;101086.31;7393359;19;20002;-60
2023/04/15 01:49:36;;;;;;;13.93;7.85;;;;;;;9.08;71.50;101086.44;7392062;19;20439;-60
2023/04/15 01:52:02;;;;;;;11.68;7.70;;;;;;;9.10;70.88;101086.31;7389746;19;19998;-60
2023/04/15 01:54:27;;;;;;;11.90;7.70;;;;;;;9.08;71.08;101082.91;7391296;19;20006;-61
2023/04/15 01:56:53;;;;;;;11.50;7.70;;;;;;;8.97;71.83;101076.53;7392703;19;20006;-62
2023/04/15 01:59:19;;;;;;;11.90;7.88;;;;;;;8.87;72.05;101078.03;7392569;19;19995;-61
2023/04/15 02:01:45;;;;;;;12.57;7.95;;;;;;;8.88;71.99;101069.16;7392038;19;20309;-60
2023/04/15 02:04:15;;;;;;;10.77;7.07;;;;;;;8.90;71.94;101072.56;7392914;19;19998;-60
2023/04/15 02:06:45;;;;;;;12.52;7.85;;;;;;;8.87;72.15;101071.88;7392060;19;20062;-61
2023/04/15 02:09:10;;;;;;;12.38;8.13;;;;;;;8.81;72.82;101070.47;7392332;19;20002;-60
2023/04/15 02:11:36;;;;;;;11.55;7.68;;;;;;;8.89;72.44;101081.44;7391697;19;20019;-61
2023/04/15 02:14:05;;;;;;;11.93;7.93;;;;;;;8.93;72.03;101075.00;7390732;19;19997;-60
2023/04/15 02:16:32;;;;;;;11.50;7.60;;;;;;;8.89;71.93;101078.78;7391323;19;20482;-60
2023/04/15 02:19:05;;;;;;;11.65;7.68;;;;;;;8.85;72.25;101073.75;7391697;19;19998;-60
2023/04/15 02:21:30;;;;;;;12.40;8.23;;;;;;;8.88;72.34;101071.78;7390700;19;20014;-60
2023/04/15 02:23:56;;;;;;;12.07;8.07;;;;;;;8.92;72.19;101077.72;7390025;19;19990;-60
2023/04/15 02:26:22;;;;;;;13.13;7.75;;;;;;;8.91;72.05;101073.41;7391368;19;20452;-60
2023/04/15 02:28:50;;;;;;;12.18;7.88;;;;;;;8.98;71.88;101072.94;7390484;19;20439;-60
2023/04/15 02:31:16;;;;;;;11.57;7.72;;;;;;;8.99;71.77;101074.63;7390944;19;20002;-60
2023/04/15 02:33:41;;;;;;;12.07;8.27;;;;;;;8.97;72.15;101073.88;7389464;19;20469;-60
2023/04/15 02:36:08;;;;;;;12.82;7.95;;;;;;;8.98;71.88;101072.94;7391107;19;20010;-59
2023/04/15 02:38:33;;;;;;;12.30;7.63;;;;;;;8.95;72.03;101072.25;7391292;19;20006;-59
2023/04/15 02:40:59;;;;;;;11.32;7.55;;;;;;;8.97;72.43;101065.94;7391587;19;20044;-59
2023/04/15 02:43:25;;;;;;;12.23;7.90;;;;;;;8.98;72.13;101074.72;7390256;19;20030;-60
2023/04/15 02:45:51;;;;;;;14.18;8.45;;;;;;;8.96;72.29;101080.09;7389019;19;19998;-60
2023/04/15 02:48:18;;;;;;;12.93;8.05;;;;;;;8.97;72.25;101084.44;7389732;19;20017;-60
2023/04/15 02:50:45;;;;;;;14.10;9.10;;;;;;;9.02;72.18;101086.78;7389326;19;19998;-60
2023/04/15 02:53:12;;;;;;;12.10;8.75;;;;;;;9.00;72.21;101086.91;7386973;19;20464;-60
2023/04/15 02:55:37;;;;;;;11.18;7.82;;;;;;;8.97;72.70;101081.81;7388749;19;20011;-60
2023/04/15 02:58:03;;;;;;;12.50;8.00;;;;;;;9.02;72.60;101086.78;7391117;19;20001;-60
2023/04/15 03:00:29;;;;;;;12.13;8.40;;;;;;;9.05;72.48;101085.78;7390113;19;19998;-60
2023/04/15 03:03:03;;;;;;;15.32;9.45;;;;;;;9.10;72.21;101081.88;7389297;19;20009;-60
2023/04/15 03:05:29;;;;;;;12.85;9.23;;;;;;;9.03;72.78;101078.75;7390167;19;20003;-60
2023/04/15 03:07:54;;;;;;;13.35;8.85;;;;;;;8.99;72.76;101079.91;7389201;19;20051;-60
2023/04/15 03:10:20;;;;;;;12.45;8.52;;;;;;;9.07;72.41;101079.41;7389580;19;20087;-61
2023/04/15 03:12:46;;;;;;;13.50;9.38;;;;;;;9.16;72.62;101073.59;7389380;19;20045;-60
2023/04/15 03:15:12;;;;;;;13.82;9.00;;;;;;;9.13;72.81;101079.06;7390335;19;20071;-60
2023/04/15 03:17:37;;;;;;;13.52;8.55;;;;;;;9.16;72.67;101081.50;7388776;19;20010;-60
2023/04/15 03:20:04;;;;;;;12.70;8.75;;;;;;;9.14;72.88;101077.25;7389392;19;20031;-60
2023/04/15 03:22:33;;;;;;;11.98;8.27;;;;;;;9.10;72.85;101070.47;7389430;19;20002;-60
2023/04/15 03:24:59;;;;;;;12.90;8.93;;;;;;;9.09;73.01;101068.78;7390156;19;20006;-60
2023/04/15 03:27:25;;;;;;;11.32;7.93;;;;;;;9.06;73.22;101071.59;7389704;19;20009;-60
2023/04/15 03:29:50;;;;;;;13.27;8.75;;;;;;;9.03;73.63;101070.00;7389501;19;20032;-60
2023/04/15 03:32:16;;;;;;;13.00;8.30;;;;;;;9.03;73.71;101068.19;7388959;19;20062;-61
2023/04/15 03:34:43;;;;;;;14.68;8.18;;;;;;;9.13;73.57;101062.34;7389359;19;20003;-60
2023/04/15 03:37:08;;;;;;;11.05;7.30;;;;;;;9.09;73.55;101060.84;7397011;19;20081;-60
2023/04/15 03:39:34;;;;;;;12.77;8.07;;;;;;;9.17;73.57;101058.56;7396954;19;19998;-62
2023/04/15 03:42:00;;;;;;;12.75;8.02;;;;;;;9.16;73.48;101065.66;7396995;19;20026;-62
2023/04/15 03:44:27;;;;;;;10.98;7.32;;;;;;;9.21;73.64;101066.22;7395951;19;20502;-62
2023/04/15 03:46:53;;;;;;;12.52;7.85;;;;;;;9.18;73.67;101071.69;7397094;19;19998;-63
2023/04/15 03:49:19;;;;;;;13.50;8.82;;;;;;;9.13;73.76;101057.91;7396495;19;20057;-62
2023/04/15 03:51:45;;;;;;;13.98;8.50;;;;;;;9.14;74.03;101064.88;7395690;19;20003;-62
2023/04/15 03:54:13;;;;;;;13.15;9.20;;;;;;;9.16;74.02;101068.31;7396753;19;19994;-61
2023/04/15 03:56:38;;;;;;;13.35;9.00;;;;;;;9.24;73.97;101065.19;7396920;19;20007;-61
2023/04/15 03:59:04;;;;;;;13.00;8.45;;;;;;;9.23;74.17;101058.16;7395699;19;19999;-61
2023/04/15 04:01:30;;;;;;;14.80;9.18;;;;;;;9.20;74.02;101061.88;7396297;19;20003;-59
2023/04/15 04:03:55;;;;;;;14.18;8.98;;;;;;;9.28;73.74;101074.59;7393500;19;20115;-60
2023/04/15 04:06:21;;;;;;;13.18;8.38;;;;;;;9.28;73.74;101067.53;7395855;19;20062;-59
2023/04/15 04:08:46;;;;;;;15.10;9.25;;;;;;;9.27;73.97;101060.53;7393924;19;20022;-60
2023/04/15 04:11:19;;;;;;;15.70;9.05;;;;;;;9.37;73.87;101060.78;7395875;19;20020;-59
2023/04/15 04:13:45;;;;;;;15.20;9.43;;;;;;;9.27;74.13;101063.19;7393876;19;20035;-60
2023/04/15 04:16:11;;;;;;;14.00;9.10;;;;;;;9.23;74.38;101053.75;7396182;19;20003;-60
2023/04/15 04:18:36;;;;;;;14.30;9.55;;;;;;;9.27;74.11;101065.84;7393575;19;19995;-59
2023/04/15 04:21:02;;;;;;;16.17;9.38;;;;;;;9.31;74.06;101065.59;7396732;19;20002;-59
2023/04/15 04:23:27;;;;;;;15.77;9.85;;;;;;;9.30;74.07;101069.22;7393988;19;20391;-58
2023/04/15 04:25:53;;;;;;;13.85;9.50;;;;;;;9.28;74.41;101077.25;7395736;19;20019;-59
2023/04/15 04:28:19;;;;;;;15.63;10.32;;;;;;;9.24;74.50;101066.03;7395834;19;19998;-59
2023/04/15 04:30:44;;;;;;;15.93;10.25;;;;;;;9.26;74.63;101072.03;7393727;19;20007;-59
2023/04/15 04:33:10;;;;;;;15.30;10.10;;;;;;;9.28;74.50;101071.97;7389003;19;20011;-60
2023/04/15 04:35:36;;;;;;;15.98;9.98;;;;;;;9.30;74.81;101075.34;7395250;19;20013;-60
2023/04/15 04:38:03;;;;;;;17.13;10.88;;;;;;;9.37;74.43;101079.28;7395571;19;20006;-60
2023/04/15 04:40:28;;;;;;;14.85;10.43;;;;;;;9.36;74.56;101082.88;7395175;19;20002;-59
2023/04/15 04:42:54;;;;;;;15.75;10.15;;;;;;;9.33;74.81;101079.59;7395026;19;20360;-59
2023/04/15 04:45:19;;;;;;;15.63;10.57;;;;;;;9.36;74.82;101077.59;7393862;19;20007;-59
2023/04/15 04:47:48;;;;;;;18.45;11.77;;;;;;;9.26;75.35;101077.31;7395236;19;19997;-59
2023/04/15 04:50:13;;;;;;;14.95;10.32;;;;;;;9.36;75.22;101079.41;7394702;19;20005;-59
2023/04/15 04:52:39;;;;;;;16.98;11.35;;;;;;;9.40;75.13;101068.53;7393498;19;20158;-59
2023/04/15 04:55:05;;;;;;;16.45;10.98;;;;;;;9.41;74.99;101070.22;7394039;19;19995;-60
2023/04/15 04:57:30;;;;;;;15.95;11.05;;;;;;;9.35;75.32;101075.91;7394271;19;20010;-60
2023/04/15 04:59:56;;;;;;;15.88;11.25;;;;;;;9.26;75.80;101077.31;7393383;19;19998;-60
2023/04/15 05:02:22;;;;;;;16.88;11.32;;;;;;;9.41;75.50;101080.78;7393916;19;19994;-61
2023/04/15 05:04:48;;;;;;;17.08;12.07;;;;;;;9.40;75.33;101083.53;7394176;19;20006;-60
2023/04/15 05:07:14;;;;;;;16.60;11.73;;;;;;;9.35;75.84;101082.97;7394892;19;19991;-60
2023/04/15 05:09:40;;;;;;;17.23;11.63;;;;;;;9.34;76.05;101090.06;7393706;19;19995;-60
2023/04/15 05:12:07;;;;;;;16.88;11.25;;;;;;;9.41;76.03;101090.53;7394123;19;20333;-60
2023/04/15 05:14:33;;;;;;;16.80;11.55;;;;;;;9.40;75.81;101081.75;7393925;19;20312;-62
2023/04/15 05:16:58;;;;;;;16.77;11.40;;;;;;;9.43;75.83;101089.50;7392455;19;20002;-60
2023/04/15 05:19:24;;;;;;;17.02;11.52;;;;;;;9.37;76.17;101087.22;7393138;19;19998;-61
2023/04/15 05:21:50;;;;;;;15.07;10.30;;;;;;;9.39;76.24;101081.84;7394032;19;20363;-62
2023/04/15 05:24:15;;;;;;;15.30;10.85;;;;;;;9.39;76.50;101097.72;7391697;19;20036;-61
2023/04/15 05:26:41;;;;;;;14.13;10.52;;;;;;;9.38;76.67;101088.06;7392195;19;20490;-61
2023/04/15 05:29:07;;;;;;;15.57;10.63;;;;;;;9.50;76.09;101087.28;7393118;19;19994;-61
2023/04/15 05:31:32;;;;;;;15.95;11.35;;;;;;;9.48;76.30;101095.31;7393226;19;20128;-62
2023/04/15 05:33:58;;;;;;;15.48;10.63;;;;;;;9.42;76.68;101094.84;7389395;19;20011;-62
2023/04/15 05:36:23;;;;;;;15.10;10.63;;;;;;;9.47;76.49;101098.06;7393502;19;20402;-62
2023/04/15 05:38:49;;;;;;;15.70;10.63;;;;;;;9.49;76.82;101101.47;7393084;19;20019;-61
2023/04/15 05:41:15;;;;;;;17.00;11.35;;;;;;;9.47;76.69;101093.63;7393184;19;20006;-61
2023/04/15 05:43:40;;;;;;;16.30;11.02;;;;;;;9.55;76.84;101100.22;7392154;19;20031;-61
2023/04/15 05:46:07;;;;;;;15.82;10.95;;;;;;;9.55;76.83;101102.88;7392565;19;20002;-61
2023/04/15 05:48:33;;;;;;;16.50;10.95;;;;;;;9.53;76.95;101101.16;7392793;19;20006;-61
2023/04/15 05:50:59;;;;;;;16.30;11.35;;;;;;;9.47;77.51;101100.72;7393774;19;20066;-61
2023/04/15 05:53:25;;;;;;;15.15;10.68;;;;;;;9.42;78.05;101100.13;7388394;19;20006;-64
2023/04/15 05:55:50;;;;;;;16.10;12.05;;;;;;;9.45;77.60;101110.53;7391681;19;19998;-60
2023/04/15 05:58:16;;;;;;;16.35;11.90;;;;;;;9.40;77.91;101108.19;7389960;19;20002;-60
2023/04/15 06:00:42;;;;;;;15.65;10.70;;;;;;;9.41;78.38;101101.94;7390291;19;20066;-61
2023/04/15 06:03:08;;;;;;;15.10;11.35;;;;;;;9.49;78.02;101106.75;7390565;19;20014;-62
2023/04/15 06:05:33;;;;;;;17.30;12.38;;;;;;;9.50;78.16;101111.06;7391239;19;20003;-61
2023/04/15 06:07:59;;;;;;;15.63;11.35;;;;;;;9.59;78.14;101113.16;7392718;19;20007;-61
2023/04/15 06:10:24;;;;;;;16.23;11.65;;;;;;;9.56;78.05;101108.06;7391848;19;20463;-62
2023/04/15 06:12:52;;;;;;;16.50;11.93;;;;;;;9.57;78.07;101114.19;7390370;19;20223;-60
2023/04/15 06:15:17;;;;;;;16.17;11.82;;;;;;;9.55;78.18;101116.94;7391851;19;20002;-60
2023/04/15 06:17:43;;;;;;;15.75;12.18;;;;;;;9.53;78.57;101119.66;7391797;19;20489;-60
2023/04/15 06:20:10;;;;;;;16.85;12.20;;;;;;;9.56;78.44;101120.44;7390944;19;20006;-60
2023/04/15 06:22:37;;;;;;;17.20;12.70;;;;;;;9.58;78.43;101115.88;7389903;19;20006;-60
2023/04/15 06:25:02;;;;;;;15.98;12.13;;;;;;;9.58;78.73;101121.16;7392373;19;20502;-62
2023/04/15 06:27:28;;;;;;;16.42;11.55;;;;;;;9.64;78.49;101126.06;7391443;19;19998;-59
2023/04/15 06:29:54;;;;;;;16.77;12.63;;;;;;;9.55;78.59;101124.88;7391341;19;20002;-60
2023/04/15 06:32:19;;;;;;;17.17;12.73;;;;;;;9.59;78.31;101131.66;7390798;19;19995;-58
2023/04/15 06:34:45;;;;;;;17.05;12.13;;;;;;;9.64;78.56;101134.00;7387305;19;20335;-60
2023/04/15 06:37:14;;;;;;;15.82;11.95;;;;;;;9.64;78.63;101134.00;7391411;19;20066;-60
2023/04/15 06:39:41;;;;;;;16.35;12.43;;;;;;;9.59;78.97;101134.31;7391424;19;20007;-59
2023/04/15 06:42:08;;;;;;;15.45;11.68;;;;;;;9.65;79.01;101144.47;7391333;19;20003;-58
2023/04/15 06:44:33;;;;;;;16.50;11.18;;;;;;;9.69;78.66;101145.13;7389393;19;20002;-61
2023/04/15 06:46:59;;;;;;;15.32;11.27;;;;;;;9.68;78.60;101146.94;7389120;19;20470;-60
2023/04/15 06:49:25;;;;;;;15.48;11.60;;;;;;;9.70;78.96;101145.03;7386534;19;20007;-59
2023/04/15 06:51:51;;;;;;;16.33;11.48;;;;;;;9.70;78.81;101149.50;7388751;19;19995;-59
2023/04/15 06:54:17;;;;;;;15.80;11.52;;;;;;;9.68;79.07;101154.00;7389788;19;19991;-59
2023/04/15 06:56:43;;;;;;;15.07;11.38;;;;;;;9.73;78.90;101154.59;7389537;19;20006;-59
2023/04/15 06:59:08;;;;;;;15.07;11.23;;;;;;;9.81;78.82;101146.16;7390319;19;20001;-59
2023/04/15 07:01:34;;;;;;;15.60;11.18;;;;;;;9.82;78.58;101148.69;7390265;19;19999;-59
2023/04/15 07:04:06;;;;;;;15.05;10.73;;;;;;;9.89;78.75;101149.16;7389462;19;19998;-58
2023/04/15 07:06:32;;;;;;;14.65;10.65;;;;;;;9.87;78.77;101154.53;7389203;19;20491;-63
2023/04/15 07:08:58;;;;;;;13.77;10.25;;;;;;;9.84;79.15;101156.53;7395222;19;20006;-60
2023/04/15 07:11:25;;;;;;;13.85;10.65;;;;;;;9.76;79.54;101146.44;7397601;19;20007;-60
2023/04/15 07:13:50;;;;;;;13.43;10.18;;;;;;;9.83;79.71;101152.19;7396235;19;20013;-59
2023/04/15 07:16:16;;;;;;;14.35;10.98;;;;;;;9.88;79.30;101155.38;7398080;19;20002;-59
2023/04/15 07:18:42;;;;;;;15.23;10.55;;;;;;;9.88;79.38;101145.69;7396828;19;19994;-59
2023/04/15 07:21:08;;;;;;;14.05;10.50;;;;;;;9.83;79.69;101142.47;7398571;19;20318;-59
2023/04/15 07:23:33;;;;;;;13.85;10.25;;;;;;;9.85;79.90;101152.97;7395012;19;19998;-59
2023/04/15 07:26:00;;;;;;;14.25;10.95;;;;;;;9.92;79.67;101146.28;7397840;19;20009;-59
2023/04/15 07:28:26;;;;;;;12.68;9.65;;;;;;;9.94;79.53;101145.25;7394518;19;19999;-59
2023/04/15 07:30:52;;;;;;;13.02;9.80;;;;;;;9.94;79.85;101147.91;7396138;19;20015;-60
2023/04/15 07:33:17;;;;;;;12.85;9.70;;;;;;;10.02;79.77;101139.47;7394104;19;20021;-59
2023/04/15 07:35:44;;;;;;;11.52;8.80;;;;;;;10.07;79.38;101139.16;7396770;19;20002;-59
2023/04/15 07:38:11;;;;;;;12.60;9.60;;;;;;;10.04;79.18;101139.38;7397370;19;20006;-58
2023/04/15 07:40:38;;;;;;;11.38;8.35;;;;;;;10.10;79.27;101144.25;7395497;19;19994;-60
2023/04/15 07:43:04;;;;;;;11.35;8.55;;;;;;;10.14;79.15;101143.09;7393050;19;20349;-58
2023/04/15 07:45:31;;;;;;;11.15;7.93;;;;;;;10.07;79.54;101142.66;7396467;19;20006;-60
2023/04/15 07:47:57;;;;;;;10.60;7.57;;;;;;;10.06;79.78;101156.84;7395075;19;20594;-59
2023/04/15 07:50:23;;;;;;;11.63;7.70;;;;;;;10.04;79.64;101157.91;7396088;19;20002;-62
2023/04/15 07:52:50;;;;;;;9.50;7.18;;;;;;;10.04;79.83;101158.75;7394844;19;20009;-60
2023/04/15 07:55:18;;;;;;;9.75;7.32;;;;;;;10.12;79.76;101158.25;7394001;19;20499;-60
2023/04/15 07:57:43;;;;;;;11.55;7.40;;;;;;;10.20;79.49;101155.94;7394682;19;20356;-60
2023/04/15 08:00:10;;;;;;;9.15;7.07;;;;;;;10.17;79.77;101158.78;7395429;19;19994;-60
2023/04/15 08:02:36;;;;;;;10.82;6.78;;;;;;;10.19;79.44;101159.56;7395630;19;20002;-60
2023/04/15 08:05:03;;;;;;;9.23;6.43;;;;;;;10.21;79.97;101161.13;7395658;19;20004;-60
2023/04/15 08:07:29;;;;;;;9.68;6.80;;;;;;;10.20;79.71;101163.88;7396463;19;19999;-59
2023/04/15 08:09:55;;;;;;;8.60;6.32;;;;;;;10.08;80.15;101168.19;7395811;19;19998;-60
2023/04/15 08:12:21;;;;;;;8.82;6.20;;;;;;;10.05;80.19;101170.19;7394652;19;20014;-59
2023/04/15 08:14:47;;;;;;;7.90;5.82;;;;;;;10.07;80.13;101173.56;7395544;19;19999;-59
2023/04/15 08:17:19;;;;;;;6.85;5.18;;;;;;;10.15;79.90;101174.78;7396495;19;20515;-59
2023/04/15 08:19:44;;;;;;;9.35;5.60;;;;;;;10.19;79.99;101164.84;7394574;19;20019;-59
2023/04/15 08:22:11;;;;;;;8.82;5.85;;;;;;;10.19;79.74;101155.09;7395436;19;20024;-59
2023/04/15 08:24:37;;;;;;;9.43;5.95;;;;;;;10.24;79.76;101153.00;7394666;19;19999;-60
2023/04/15 08:27:04;;;;;;;7.95;5.68;;;;;;;10.17;80.13;101167.56;7395930;19;19995;-59
2023/04/15 08:29:31;;;;;;;8.50;5.35;;;;;;;10.13;80.13;101170.53;7394805;19;20335;-59
2023/04/15 08:32:00;;;;;;;9.35;5.47;;;;;;;10.25;80.17;101165.31;7393975;19;19999;-60
2023/04/15 08:34:26;;;;;;;9.57;5.78;;;;;;;10.23;80.33;101167.19;7392783;19;20022;-60
2023/04/15 08:36:51;;;;;;;8.45;5.88;;;;;;;10.28;80.22;101169.56;7395187;19;20330;-60
2023/04/15 08:39:17;;;;;;;9.52;5.75;;;;;;;10.18;80.27;101171.06;7395214;19;19994;-59
2023/04/15 08:41:50;;;;;;;9.43;5.57;;;;;;;10.21;80.39;101174.38;7395527;19;20086;-59
2023/04/15 08:44:17;;;;;;;9.00;5.80;;;;;;;10.26;80.37;101171.44;7390490;19;20006;-59
2023/04/15 08:46:43;;;;;;;8.05;5.03;;;;;;;10.21;80.72;101177.00;7393803;19;20484;-60
2023/04/15 08:49:13;;;;;;;9.68;5.38;;;;;;;10.27;80.23;101167.03;7392200;19;20013;-60
2023/04/15 08:51:42;;;;;;;7.57;5.00;;;;;;;10.32;80.25;101167.56;7394669;19;20003;-59
2023/04/15 08:54:08;;;;;;;7.68;4.90;;;;;;;10.25;80.37;101167.94;7391570;19;20019;-59
2023/04/15 08:56:34;;;;;;;7.50;4.63;;;;;;;10.34;80.49;101177.09;7393906;19;20011;-58
2023/04/15 08:59:01;;;;;;;7.38;4.85;;;;;;;10.33;80.48;101172.75;7394574;19;20031;-59
2023/04/15 09:01:26;;;;;;;6.95;4.60;;;;;;;10.36;80.61;101175.19;7394072;19;20014;-58
2023/04/15 09:03:55;;;;;;;7.88;4.80;;;;;;;10.38;80.43;101175.94;7392726;19;20340;-59
2023/04/15 09:06:22;;;;;;;6.85;4.43;;;;;;;10.33;80.46;101174.53;7391995;19;20483;-59
2023/04/15 09:08:49;;;;;;;7.05;4.43;;;;;;;10.39;80.44;101172.34;7394210;19;20175;-59
2023/04/15 09:11:16;;;;;;;6.03;4.00;;;;;;;10.38;80.37;101178.59;7393943;19;20019;-58
2023/04/15 09:13:42;;;;;;;6.78;4.20;;;;;;;10.38;80.33;101177.72;7392379;19;20061;-59
2023/04/15 09:16:08;;;;;;;8.43;4.53;;;;;;;10.42;80.32;101181.91;7391930;19;19998;-58
2023/04/15 09:18:35;;;;;;;6.63;4.28;;;;;;;10.42;80.26;101181.91;7393649;19;20010;-59
2023/04/15 09:21:12;;;;;;;6.43;4.15;;;;;;;10.41;80.54;101199.56;7394288;19;20006;-59
2023/04/15 09:23:52;;;;;;;6.97;4.28;;;;;;;10.40;80.32;101204.97;7392014;19;20014;-58
2023/04/15 09:26:18;;;;;;;6.68;4.20;;;;;;;10.38;80.31;101205.06;7393481;19;20014;-59
2023/04/15 09:28:43;;;;;;;6.22;3.92;;;;;;;10.46;80.46;101196.63;7393971;19;20007;-59
2023/04/15 09:31:09;;;;;;;6.43;3.83;;;;;;;10.47;80.53;101207.09;7391880;19;20403;-59
2023/04/15 09:33:53;;;;;;;7.00;4.07;;;;;;;10.48;80.34;101206.16;7391201;19;20006;-60
2023/04/15 09:36:19;;;;;;;5.88;3.67;;;;;;;10.48;80.40;101208.78;7393294;19;20002;-60
2023/04/15 09:38:58;;;;;;;5.80;3.55;;;;;;;10.54;80.43;101209.34;7392791;19;20015;-60
2023/04/15 09:41:25;;;;;;;7.15;4.03;;;;;;;10.43;80.68;101218.00;7394053;19;19998;-60
2023/04/15 09:43:51;;;;;;;7.00;3.75;;;;;;;10.42;80.56;101216.31;7391872;19;19999;-58
2023/04/15 09:46:18;;;;;;;6.45;3.67;;;;;;;10.47;80.53;101224.78;7393361;19;20464;-59
2023/04/15 09:48:43;;;;;;;6.55;3.65;;;;;;;10.48;80.84;101224.69;7393035;19;20011;-59
2023/04/15 09:51:09;;;;;;;6.63;3.67;;;;;;;10.51;80.85;101228.09;7393439;19;20002;-60
2023/04/15 09:53:37;;;;;;;9.35;4.43;;;;;;;10.56;80.69;101234.78;7390471;19;20008;-60
2023/04/15 09:56:03;;;;;;;15.93;6.50;;;;;;;10.54;80.80;101227.91;7393054;19;20022;-60
2023/04/15 09:58:31;;;;;;;9.43;4.25;;;;;;;10.60;80.58;101228.31;7392906;19;20309;-58
2023/04/15 10:00:58;;;;;;;5.40;3.35;;;;;;;10.56;80.72;101226.81;7393590;19;19998;-59
2023/04/15 10:03:27;;;;;;;5.75;3.50;;;;;;;10.64;80.49;101231.63;7391669;19;20005;-59
2023/04/15 10:05:55;;;;;;;6.13;3.65;;;;;;;10.62;80.27;101233.53;7392198;19;19991;-59
2023/04/15 10:08:23;;;;;;;7.38;4.15;;;;;;;10.53;80.61;101235.00;7392558;19;20005;-60
2023/04/15 10:10:51;;;;;;;6.47;4.00;;;;;;;10.58;80.41;101238.19;7392997;19;20278;-58
2023/04/15 10:13:19;;;;;;;7.25;4.30;;;;;;;10.58;80.37;101230.22;7391213;19;20006;-59
2023/04/15 10:15:50;;;;;;;7.57;4.47;;;;;;;10.57;80.54;101238.25;7392443;19;20015;-59
2023/04/15 10:18:20;;;;;;;7.90;4.35;;;;;;;10.53;80.63;101236.78;7391835;19;20059;-59
2023/04/15 10:20:47;;;;;;;7.25;4.30;;;;;;;10.54;80.67;101228.75;7392895;19;20002;-59
2023/04/15 10:23:14;;;;;;;8.90;5.32;;;;;;;10.63;80.16;101236.06;7390706;19;20002;-60
2023/04/15 10:25:41;;;;;;;8.02;5.10;;;;;;;10.71;80.22;101224.97;7391740;19;20002;-60
2023/04/15 10:28:09;;;;;;;8.32;5.00;;;;;;;10.73;80.08;101231.88;7392454;19;19994;-59
2023/04/15 10:30:35;;;;;;;8.30;5.28;;;;;;;10.78;79.97;101241.31;7390244;19;19995;-59
2023/04/15 10:33:02;;;;;;;7.78;5.20;;;;;;;10.74;80.13;101240.66;7386129;19;20342;-60
2023/04/15 10:35:31;;;;;;;8.68;5.45;;;;;;;10.76;80.08;101245.84;7391197;19;20074;-60
2023/04/15 10:37:56;;;;;;;9.45;5.93;;;;;;;10.73;80.23;101239.81;7391630;19;20007;-60
2023/04/15 10:40:33;;;;;;;8.73;5.68;;;;;;;10.80;80.02;101242.03;7391679;19;19999;-60
2023/04/15 10:43:02;;;;;;;10.40;5.60;;;;;;;10.76;80.23;101244.06;7388354;19;20010;-60
2023/04/15 10:45:32;;;;;;;10.32;6.25;;;;;;;10.73;80.14;101241.63;7388167;19;19998;-59
2023/04/15 10:48:01;;;;;;;10.50;6.55;;;;;;;10.72;80.43;101246.06;7390573;19;20027;-60
2023/04/15 10:50:28;;;;;;;9.60;6.10;;;;;;;10.62;80.81;101242.31;7391028;19;20003;-59
2023/04/15 10:52:55;;;;;;;9.38;5.80;;;;;;;10.66;80.78;101253.56;7389675;19;20014;-60
2023/04/15 10:55:32;;;;;;;10.48;5.90;;;;;;;10.64;80.97;101244.84;7386665;19;20026;-59
2023/04/15 10:58:02;;;;;;;10.43;6.28;;;;;;;10.69;80.60;101243.63;7391266;19;20006;-61
2023/04/15 11:00:29;;;;;;;9.93;5.88;;;;;;;10.66;80.38;101258.88;7390278;19;19998;-60
2023/04/15 11:02:55;;;;;;;10.07;5.93;;;;;;;10.67;80.59;101263.19;7390362;19;19998;-60
2023/04/15 11:05:42;;;;;;;10.68;6.60;;;;;;;10.59;80.57;101262.84;7390474;19;19999;-60
2023/04/15 11:08:08;;;;;;;11.00;6.70;;;;;;;10.57;80.83;101262.09;7390219;19;20003;-58
2023/04/15 11:10:34;;;;;;;10.45;6.43;;;;;;;10.59;80.95;101261.06;7389704;19;20062;-62
2023/04/15 11:13:02;;;;;;;12.57;6.45;;;;;;;10.61;80.84;101256.53;7389225;19;20037;-59
2023/04/15 11:15:37;;;;;;;11.63;7.18;;;;;;;10.59;80.82;101261.06;7387971;19;20202;-59
2023/04/15 11:18:13;;;;;;;12.57;7.32;;;;;;;10.65;80.72;101257.16;7389425;19;20011;-59
2023/04/15 11:20:43;;;;;;;12.75;7.63;;;;;;;10.64;80.72;101258.94;7389158;19;20037;-59